2P2

Washington Island Airport

Washington Island, Wisconsin, USA
METAR K2P2 172335Z AUTO 00000KT 10SM OVC042 M02/M11 A3034 RMK AO2 T10251111
Observed Flight Rules
Nov-17 @ 23:35 UTC (12 minutes ago) Visual Flight Rules
Visibility Clouds
10 miles
  • Overcast at 4,200' AGL
Temperatures Readings
Current -3°C / 27°F
Dewpoint -11°C / 12°F
Humidity 54%
Altimeter 30.34" Hg
Pressure 1027 hPa
Elevation 199
METAR K2P2 172335Z AUTO 00000KT 10SM OVC042 M02/M11 A3034 RMK AO2 T10251111
Observed Flight Rules
Nov-17 @ 23:35 UTC
(12 minutes ago)
VFR
Clouds
  • Overcast at 4,200' AGL
Temperature Dewpoint
-3°C / 27°F -11°C / 12°F
Humidity Altimeter Pressure
54% 30.34" Hg 1027 hPa